createdAt,value
2023-02-03T00:00:31.864Z,10.30
2023-02-03T00:02:59.396Z,10.30
2023-02-03T00:05:26.999Z,10.30
2023-02-03T00:07:54.426Z,10.30
2023-02-03T00:10:21.759Z,10.30
2023-02-03T00:12:51.363Z,10.30
2023-02-03T00:15:19.445Z,10.40
2023-02-03T00:17:46.678Z,10.40
2023-02-03T00:20:13.980Z,10.40
2023-02-03T00:22:41.267Z,10.40
2023-02-03T00:25:08.825Z,10.40
2023-02-03T00:27:36.180Z,10.40
2023-02-03T00:30:03.976Z,10.40
2023-02-03T00:32:31.435Z,10.30
2023-02-03T00:34:58.802Z,10.30
2023-02-03T00:37:26.092Z,10.30
2023-02-03T00:39:53.463Z,10.30
2023-02-03T00:42:20.816Z,10.30
2023-02-03T00:44:48.038Z,10.40
2023-02-03T00:47:15.245Z,10.30
2023-02-03T00:49:42.546Z,10.30
2023-02-03T00:52:09.824Z,10.30
2023-02-03T00:54:38.807Z,10.30
2023-02-03T00:57:06.130Z,10.30
2023-02-03T00:59:33.528Z,10.30
2023-02-03T01:02:00.936Z,10.30
2023-02-03T01:04:28.458Z,10.30
2023-02-03T01:06:57.574Z,10.40
2023-02-03T01:09:24.976Z,10.40
2023-02-03T01:11:55.060Z,10.40
2023-02-03T01:14:22.252Z,10.40
2023-02-03T01:16:49.607Z,10.30
2023-02-03T01:19:18.084Z,10.30
2023-02-03T01:21:45.384Z,10.30
2023-02-03T01:24:14.998Z,10.40
2023-02-03T01:26:42.951Z,10.40
2023-02-03T01:29:10.472Z,10.40
2023-02-03T01:31:40.098Z,10.40
2023-02-03T01:34:12.462Z,10.40
2023-02-03T01:36:40.107Z,10.30
2023-02-03T01:39:07.824Z,10.30
2023-02-03T01:41:37.236Z,10.40
2023-02-03T01:44:44.078Z,10.30
2023-02-03T01:47:34.409Z,10.40
2023-02-03T01:50:07.528Z,10.40
2023-02-03T01:52:36.847Z,10.30
2023-02-03T01:55:08.059Z,10.30
2023-02-03T01:57:52.175Z,10.40
2023-02-03T02:00:19.970Z,10.40
2023-02-03T02:02:48.916Z,10.40
2023-02-03T02:05:33.204Z,10.40
2023-02-03T02:08:03.080Z,10.40
2023-02-03T02:10:33.437Z,10.40
2023-02-03T02:13:03.356Z,10.40
2023-02-03T02:15:58.908Z,10.40
2023-02-03T02:19:10.944Z,10.40
2023-02-03T02:21:56.556Z,10.40
2023-02-03T02:24:58.011Z,10.40
2023-02-03T02:27:34.069Z,10.40
2023-02-03T02:30:31.247Z,10.40
2023-02-03T02:33:10.976Z,10.40
2023-02-03T02:35:39.436Z,10.40
2023-02-03T02:38:23.654Z,10.40
2023-02-03T02:40:54.093Z,10.40
2023-02-03T02:43:32.277Z,10.40
2023-02-03T02:46:10.258Z,10.40
2023-02-03T02:48:47.148Z,10.40
2023-02-03T02:51:16.313Z,10.40
2023-02-03T02:53:51.921Z,10.40
2023-02-03T02:56:22.011Z,10.40
2023-02-03T02:58:51.827Z,10.40
2023-02-03T03:01:19.565Z,10.30
2023-02-03T03:03:47.504Z,10.40
2023-02-03T03:06:17.602Z,10.40
2023-02-03T03:09:07.931Z,10.40
2023-02-03T03:11:43.585Z,10.40
2023-02-03T03:14:14.424Z,10.40
2023-02-03T03:16:47.565Z,10.40
2023-02-03T03:19:24.991Z,10.30
2023-02-03T03:21:59.102Z,10.30
2023-02-03T03:24:39.326Z,10.30
2023-02-03T03:27:24.219Z,10.30
2023-02-03T03:30:05.193Z,10.30
2023-02-03T03:32:33.133Z,10.30
2023-02-03T03:35:02.541Z,10.30
2023-02-03T03:37:35.624Z,10.40
2023-02-03T03:40:10.994Z,10.40
2023-02-03T03:42:50.240Z,10.40
2023-02-03T03:45:44.055Z,10.40
2023-02-03T03:48:19.971Z,10.40
2023-02-03T03:50:53.064Z,10.40
2023-02-03T03:53:22.774Z,10.40
2023-02-03T03:55:52.696Z,10.40
2023-02-03T03:58:32.097Z,10.40
2023-02-03T04:01:07.345Z,10.40
2023-02-03T04:03:41.436Z,10.40
2023-02-03T04:06:08.779Z,10.40
2023-02-03T04:08:36.048Z,10.40
2023-02-03T04:11:03.348Z,10.40
2023-02-03T04:13:30.773Z,10.40
2023-02-03T04:15:58.183Z,10.40
2023-02-03T04:18:25.564Z,10.40
2023-02-03T04:20:52.870Z,10.40
2023-02-03T04:23:20.233Z,10.40
2023-02-03T04:25:47.578Z,10.40
2023-02-03T04:28:14.885Z,10.40
2023-02-03T04:30:42.229Z,10.40
2023-02-03T04:33:09.527Z,10.40
2023-02-03T04:35:37.695Z,10.40
2023-02-03T04:38:04.993Z,10.40
2023-02-03T04:40:34.744Z,10.40
2023-02-03T04:43:08.968Z,10.40
2023-02-03T04:45:36.226Z,10.40
2023-02-03T04:48:04.876Z,10.40
2023-02-03T04:50:32.736Z,10.40
2023-02-03T04:53:01.242Z,10.40
2023-02-03T04:55:28.933Z,10.40
2023-02-03T04:58:00.948Z,10.40
2023-02-03T05:00:29.501Z,10.40
2023-02-03T05:02:57.165Z,10.40
2023-02-03T05:05:24.547Z,10.40
2023-02-03T05:07:51.838Z,10.40
2023-02-03T05:10:19.214Z,10.40
2023-02-03T05:12:46.476Z,10.40
2023-02-03T05:15:13.803Z,10.40
2023-02-03T05:17:41.284Z,10.40
2023-02-03T05:20:09.303Z,10.40
2023-02-03T05:22:36.662Z,10.40
2023-02-03T05:25:04.783Z,10.40
2023-02-03T05:27:31.995Z,10.40
2023-02-03T05:29:59.242Z,10.40
2023-02-03T05:32:27.116Z,10.40
2023-02-03T05:34:54.451Z,10.40
2023-02-03T05:37:21.773Z,10.40
2023-02-03T05:39:49.109Z,10.40
2023-02-03T05:42:16.388Z,10.40
2023-02-03T05:44:43.652Z,10.40
2023-02-03T05:47:10.831Z,10.30
2023-02-03T05:49:38.173Z,10.40
2023-02-03T05:52:05.396Z,10.40
2023-02-03T05:54:32.716Z,10.40
2023-02-03T05:57:00.005Z,10.40
2023-02-03T05:59:27.261Z,10.40
2023-02-03T06:01:54.573Z,10.40
2023-02-03T06:04:21.924Z,10.40
2023-02-03T06:06:49.217Z,10.40
2023-02-03T06:09:16.533Z,10.30
2023-02-03T06:11:43.891Z,10.40
2023-02-03T06:14:11.115Z,10.40
2023-02-03T06:16:38.456Z,10.40
2023-02-03T06:19:05.701Z,10.40
2023-02-03T06:21:33.090Z,10.40
2023-02-03T06:24:00.354Z,10.40
2023-02-03T06:26:27.507Z,10.40
2023-02-03T06:28:54.767Z,10.40
2023-02-03T06:31:22.128Z,10.40
2023-02-03T06:33:49.474Z,10.40
2023-02-03T06:36:17.080Z,10.40
2023-02-03T06:38:44.458Z,10.40
2023-02-03T06:41:11.874Z,10.40
2023-02-03T06:43:39.092Z,10.40
2023-02-03T06:46:06.591Z,10.40
2023-02-03T06:48:33.890Z,10.40
2023-02-03T06:51:01.492Z,10.40
2023-02-03T06:53:28.761Z,10.40
2023-02-03T06:55:55.984Z,10.40
2023-02-03T06:58:23.373Z,10.40
2023-02-03T07:00:51.376Z,10.40
2023-02-03T07:03:18.696Z,10.40
2023-02-03T07:05:45.925Z,10.40
2023-02-03T07:08:13.150Z,10.40
2023-02-03T07:10:41.763Z,10.40
2023-02-03T07:13:09.026Z,10.40
2023-02-03T07:15:36.402Z,10.40
2023-02-03T07:18:04.169Z,10.40
2023-02-03T07:20:32.937Z,10.40
2023-02-03T07:23:00.229Z,10.40
2023-02-03T07:25:27.595Z,10.40
2023-02-03T07:27:54.858Z,10.40
2023-02-03T07:30:22.405Z,10.40
2023-02-03T07:32:51.596Z,10.40
2023-02-03T07:35:19.568Z,10.40
2023-02-03T07:37:46.946Z,10.40
2023-02-03T07:40:14.950Z,10.50
2023-02-03T07:42:43.886Z,10.50
2023-02-03T07:45:12.388Z,10.50
2023-02-03T07:47:40.680Z,10.50
2023-02-03T07:50:08.556Z,10.50
2023-02-03T07:52:36.267Z,10.50
2023-02-03T07:55:04.020Z,10.50
2023-02-03T07:57:31.283Z,10.50
2023-02-03T07:59:58.483Z,10.50
2023-02-03T08:02:25.722Z,10.50
2023-02-03T08:04:53.053Z,10.50
2023-02-03T08:07:20.259Z,10.50
2023-02-03T08:09:47.512Z,10.50
2023-02-03T08:12:14.796Z,10.50
2023-02-03T08:14:42.051Z,10.50
2023-02-03T08:17:09.396Z,10.60
2023-02-03T08:19:36.769Z,10.60
2023-02-03T08:22:03.990Z,10.60
2023-02-03T08:24:31.314Z,10.60
2023-02-03T08:26:59.818Z,10.60
2023-02-03T08:29:27.201Z,10.60
2023-02-03T08:31:55.070Z,10.60
2023-02-03T08:34:22.397Z,10.60
2023-02-03T08:36:49.583Z,10.60
2023-02-03T08:39:16.905Z,10.70
2023-02-03T08:41:44.180Z,10.70
2023-02-03T08:44:11.408Z,10.70
2023-02-03T08:46:43.524Z,10.70
2023-02-03T08:49:11.610Z,10.70
2023-02-03T08:51:39.052Z,10.80
2023-02-03T08:54:06.330Z,10.70
2023-02-03T08:56:36.308Z,10.70
2023-02-03T08:59:03.727Z,10.70
2023-02-03T09:01:31.262Z,10.70
2023-02-03T09:03:58.806Z,10.70
2023-02-03T09:06:26.373Z,10.70
2023-02-03T09:08:53.633Z,10.70
2023-02-03T09:11:20.894Z,10.70
2023-02-03T09:13:48.787Z,10.60
2023-02-03T09:16:18.854Z,10.60
2023-02-03T09:18:47.030Z,10.70
2023-02-03T09:21:33.824Z,10.70
2023-02-03T09:24:04.699Z,10.70
2023-02-03T09:26:31.931Z,10.70
2023-02-03T09:28:59.409Z,10.70
2023-02-03T09:31:26.717Z,10.70
2023-02-03T09:33:54.066Z,10.70
2023-02-03T09:36:21.315Z,10.70
2023-02-03T09:38:48.598Z,10.70
2023-02-03T09:41:28.265Z,10.70
2023-02-03T09:44:36.171Z,10.60
2023-02-03T09:47:12.071Z,10.60
2023-02-03T09:49:47.470Z,10.70
2023-02-03T09:52:22.667Z,10.70
2023-02-03T09:55:00.760Z,10.70
2023-02-03T09:57:31.115Z,10.70
2023-02-03T10:00:02.266Z,10.70
2023-02-03T10:02:52.782Z,10.70
2023-02-03T10:05:38.813Z,10.70
2023-02-03T10:08:36.210Z,10.70
2023-02-03T10:11:19.085Z,10.60
2023-02-03T10:14:07.425Z,10.60
2023-02-03T10:16:59.071Z,10.60
2023-02-03T10:19:56.067Z,10.50
2023-02-03T10:22:28.417Z,10.50
2023-02-03T10:24:59.422Z,10.50
2023-02-03T10:27:27.786Z,10.60
2023-02-03T10:30:12.283Z,10.50
2023-02-03T10:32:39.578Z,10.60
2023-02-03T10:35:12.739Z,10.60
2023-02-03T10:37:51.534Z,10.60
2023-02-03T10:40:20.257Z,10.50
2023-02-03T10:43:07.749Z,10.50
2023-02-03T10:45:38.473Z,10.50
2023-02-03T10:48:11.521Z,10.50
2023-02-03T10:50:44.255Z,10.50
2023-02-03T10:53:25.551Z,10.50
2023-02-03T10:56:07.631Z,10.50
2023-02-03T10:58:37.052Z,10.50
2023-02-03T11:01:11.881Z,10.50
2023-02-03T11:03:43.451Z,10.50
2023-02-03T11:06:16.385Z,10.50
2023-02-03T11:08:47.026Z,10.50
2023-02-03T11:11:29.086Z,10.50
2023-02-03T11:14:13.064Z,10.50
2023-02-03T11:16:43.397Z,10.50
2023-02-03T11:19:21.558Z,10.50
2023-02-03T11:21:56.381Z,10.50
2023-02-03T11:24:28.994Z,10.50
2023-02-03T11:27:04.848Z,10.50
2023-02-03T11:29:35.273Z,10.50
2023-02-03T11:32:16.615Z,10.60
2023-02-03T11:35:15.939Z,10.50
2023-02-03T11:37:49.068Z,10.50
2023-02-03T11:40:18.125Z,10.60
2023-02-03T11:43:00.713Z,10.60
2023-02-03T11:45:42.090Z,10.50
2023-02-03T11:48:15.509Z,10.50
2023-02-03T11:51:03.614Z,10.50
2023-02-03T11:53:58.870Z,10.60
2023-02-03T11:56:58.449Z,10.60
2023-02-03T11:59:52.034Z,10.50
2023-02-03T12:02:52.065Z,10.50
2023-02-03T12:05:56.735Z,10.50
2023-02-03T12:08:46.236Z,10.60
2023-02-03T12:11:35.478Z,10.60
2023-02-03T12:14:17.366Z,10.60
2023-02-03T12:17:16.848Z,10.60
2023-02-03T12:20:03.172Z,10.60
2023-02-03T12:22:45.919Z,10.70
2023-02-03T12:25:48.342Z,10.70
2023-02-03T12:28:34.350Z,10.70
2023-02-03T12:31:15.880Z,10.70
2023-02-03T12:33:52.078Z,10.70
2023-02-03T12:36:28.601Z,10.70
2023-02-03T12:39:11.219Z,10.70
2023-02-03T12:41:46.542Z,10.70
2023-02-03T12:44:31.955Z,10.70
2023-02-03T12:47:15.529Z,10.80
2023-02-03T12:49:49.353Z,10.80
2023-02-03T12:52:43.695Z,10.80
2023-02-03T12:55:34.730Z,10.80
2023-02-03T12:58:10.477Z,10.80
2023-02-03T13:00:40.623Z,10.80
2023-02-03T13:03:13.788Z,10.80
2023-02-03T13:05:46.773Z,10.80
2023-02-03T13:08:24.088Z,10.80
2023-02-03T13:11:10.560Z,10.90
2023-02-03T13:13:46.604Z,10.90
2023-02-03T13:16:15.011Z,10.90
2023-02-03T13:18:48.174Z,10.90
2023-02-03T13:21:15.607Z,10.90
2023-02-03T13:23:48.442Z,10.90
2023-02-03T13:26:35.923Z,10.90
2023-02-03T13:29:16.195Z,10.90
2023-02-03T13:32:17.259Z,10.90
2023-02-03T13:35:21.685Z,10.90
2023-02-03T13:38:04.217Z,10.90
2023-02-03T13:40:45.643Z,10.90
2023-02-03T13:43:36.012Z,10.90
2023-02-03T13:46:09.347Z,10.90
2023-02-03T13:48:37.346Z,10.80
2023-02-03T13:51:14.499Z,10.80
2023-02-03T13:53:44.874Z,10.80
2023-02-03T13:56:26.197Z,10.80
2023-02-03T13:59:15.794Z,10.80
2023-02-03T14:01:43.705Z,10.80
2023-02-03T14:04:26.024Z,10.80
2023-02-03T14:06:53.256Z,10.90
2023-02-03T14:09:31.823Z,10.90
2023-02-03T14:12:21.104Z,10.90
2023-02-03T14:14:51.085Z,11.00
2023-02-03T14:17:44.339Z,10.90
2023-02-03T14:20:26.988Z,11.00
2023-02-03T14:23:05.338Z,11.00
2023-02-03T14:25:49.765Z,11.10
2023-02-03T14:28:31.866Z,11.10
2023-02-03T14:31:10.515Z,11.00
2023-02-03T14:34:13.178Z,11.00
2023-02-03T14:36:50.553Z,11.00
2023-02-03T14:39:17.884Z,11.00
2023-02-03T14:42:08.655Z,11.00
2023-02-03T14:44:48.110Z,11.10
2023-02-03T14:47:39.519Z,11.20
2023-02-03T14:50:40.543Z,11.20
2023-02-03T14:53:28.627Z,11.30
2023-02-03T14:56:13.452Z,11.30
2023-02-03T14:58:46.118Z,11.30
2023-02-03T15:01:29.074Z,11.30
2023-02-03T15:04:11.424Z,11.30
2023-02-03T15:06:42.767Z,11.30
2023-02-03T15:09:42.980Z,11.30
2023-02-03T15:12:26.018Z,11.30
2023-02-03T15:14:54.197Z,11.30
2023-02-03T15:17:27.832Z,11.30
2023-02-03T15:19:55.101Z,11.30
2023-02-03T15:22:30.478Z,11.30
2023-02-03T15:25:07.643Z,11.30
2023-02-03T15:27:34.921Z,11.20
2023-02-03T15:30:25.256Z,11.30
2023-02-03T15:33:17.532Z,11.30
2023-02-03T15:35:48.184Z,11.30
2023-02-03T15:38:25.892Z,11.20
2023-02-03T15:40:57.715Z,11.30
2023-02-03T15:43:32.385Z,11.30
2023-02-03T15:46:35.461Z,11.30
2023-02-03T15:49:09.085Z,11.20
2023-02-03T15:51:46.205Z,11.30
2023-02-03T15:54:25.029Z,11.20
2023-02-03T15:57:01.913Z,11.20
2023-02-03T15:59:42.527Z,11.20
2023-02-03T16:02:24.913Z,11.20
2023-02-03T16:04:52.862Z,11.20
2023-02-03T16:07:25.821Z,11.30
2023-02-03T16:09:54.583Z,11.30
2023-02-03T16:12:25.781Z,11.30
2023-02-03T16:14:55.187Z,11.30
2023-02-03T16:17:39.256Z,11.30
2023-02-03T16:20:12.376Z,11.30
2023-02-03T16:22:42.407Z,11.40
2023-02-03T16:25:23.132Z,11.40
2023-02-03T16:28:20.614Z,11.40
2023-02-03T16:31:21.431Z,11.40
2023-02-03T16:34:09.352Z,11.30
2023-02-03T16:37:01.342Z,11.40
2023-02-03T16:39:47.695Z,11.30
2023-02-03T16:42:40.305Z,11.30
2023-02-03T16:45:34.976Z,11.20
2023-02-03T16:48:22.561Z,11.20
2023-02-03T16:50:58.947Z,11.10
2023-02-03T16:53:30.246Z,11.10
2023-02-03T16:56:00.218Z,11.10
2023-02-03T16:58:28.158Z,11.00
2023-02-03T17:00:57.568Z,10.90
2023-02-03T17:03:27.334Z,10.80
2023-02-03T17:05:57.549Z,10.80
2023-02-03T17:08:26.150Z,10.70
2023-02-03T17:10:53.751Z,10.70
2023-02-03T17:13:22.979Z,10.70
2023-02-03T17:15:55.391Z,10.80
2023-02-03T17:18:22.750Z,10.70
2023-02-03T17:20:51.104Z,10.70
2023-02-03T17:23:18.971Z,10.60
2023-02-03T17:25:48.961Z,10.60
2023-02-03T17:28:16.952Z,10.60
2023-02-03T17:30:45.173Z,10.60
2023-02-03T17:33:12.551Z,10.50
2023-02-03T17:35:41.574Z,10.60
2023-02-03T17:38:10.275Z,10.50
2023-02-03T17:54:33.736Z,10.50
2023-02-03T17:57:01.354Z,10.50
2023-02-03T17:59:28.991Z,10.40
2023-02-03T18:01:56.602Z,10.50
2023-02-03T18:04:23.929Z,10.40
2023-02-03T18:06:54.581Z,10.40
2023-02-03T18:09:21.971Z,10.40
2023-02-03T18:11:49.877Z,10.40
2023-02-03T18:14:18.133Z,10.30
2023-02-03T18:16:45.746Z,10.30
2023-02-03T18:19:15.697Z,10.30
2023-02-03T18:21:44.062Z,10.40
2023-02-03T18:24:13.487Z,10.40
2023-02-03T18:26:50.998Z,10.30
2023-02-03T18:29:19.435Z,10.20
2023-02-03T18:31:47.967Z,10.20
2023-02-03T18:34:16.172Z,10.30
2023-02-03T18:36:43.622Z,10.20
2023-02-03T18:39:12.623Z,10.20
2023-02-03T18:41:40.620Z,10.20
2023-02-03T18:44:07.969Z,10.20
2023-02-03T18:46:35.407Z,10.20
2023-02-03T18:49:02.866Z,10.20
2023-02-03T18:51:30.129Z,10.20
2023-02-03T18:53:58.991Z,10.20
2023-02-03T18:56:28.320Z,10.20
2023-02-03T18:58:55.633Z,10.20
2023-02-03T19:01:28.320Z,10.20
2023-02-03T19:03:56.990Z,10.20
2023-02-03T19:06:25.448Z,10.20
2023-02-03T19:08:52.932Z,10.20
2023-02-03T19:11:20.239Z,10.20
2023-02-03T19:13:47.546Z,10.30
2023-02-03T19:16:17.731Z,10.30
2023-02-03T19:18:45.890Z,10.30
2023-02-03T19:21:14.054Z,10.30
2023-02-03T19:23:42.146Z,10.30
2023-02-03T19:26:10.258Z,10.30
2023-02-03T19:28:38.501Z,10.30
2023-02-03T19:31:08.858Z,10.30
2023-02-03T19:33:37.476Z,10.40
2023-02-03T19:36:06.146Z,10.30
2023-02-03T19:38:33.976Z,10.30
2023-02-03T19:41:02.508Z,10.30
2023-02-03T19:43:33.014Z,10.30
2023-02-03T19:46:00.580Z,10.30
2023-02-03T19:48:28.130Z,10.30
2023-02-03T19:50:55.570Z,10.30
2023-02-03T19:53:24.340Z,10.30
2023-02-03T19:55:51.836Z,10.40
2023-02-03T19:58:19.400Z,10.30
2023-02-03T20:00:46.981Z,10.30
2023-02-03T20:03:14.507Z,10.30
2023-02-03T20:05:41.916Z,10.30
2023-02-03T20:08:13.159Z,10.40
2023-02-03T20:10:42.376Z,10.30
2023-02-03T20:13:10.820Z,10.40
2023-02-03T20:15:38.335Z,10.40
2023-02-03T20:18:06.908Z,10.30
2023-02-03T20:20:35.229Z,10.30
2023-02-03T20:23:02.517Z,10.20
2023-02-03T20:25:29.830Z,10.30
2023-02-03T20:27:58.226Z,10.20
2023-02-03T20:30:25.662Z,10.30
2023-02-03T20:32:54.661Z,10.20
2023-02-03T20:35:23.703Z,10.20
2023-02-03T20:37:51.361Z,10.20
2023-02-03T20:40:22.538Z,10.20
2023-02-03T20:42:51.191Z,10.20
2023-02-03T20:45:20.719Z,10.20
2023-02-03T20:47:48.115Z,10.30
2023-02-03T20:50:18.899Z,10.30
2023-02-03T20:52:51.626Z,10.30
2023-02-03T20:55:22.179Z,10.30
2023-02-03T20:57:55.061Z,10.30
2023-02-03T21:00:25.117Z,10.30
2023-02-03T21:03:11.601Z,10.30
2023-02-03T21:05:42.234Z,10.30
2023-02-03T21:08:17.811Z,10.30
2023-02-03T21:10:46.888Z,10.30
2023-02-03T21:13:20.596Z,10.20
2023-02-03T21:15:53.527Z,10.20
2023-02-03T21:18:34.864Z,10.20
2023-02-03T21:21:02.946Z,10.20
2023-02-03T21:23:42.069Z,10.30
2023-02-03T21:26:29.816Z,10.30
2023-02-03T21:28:59.338Z,10.20
2023-02-03T21:31:26.673Z,10.30
2023-02-03T21:33:58.890Z,10.30
2023-02-03T21:36:30.364Z,10.30
2023-02-03T21:39:00.054Z,10.30
2023-02-03T21:41:32.622Z,10.30
2023-02-03T21:44:00.660Z,10.30
2023-02-03T21:46:31.741Z,10.30
2023-02-03T21:49:01.305Z,10.20
2023-02-03T21:51:38.576Z,10.20
2023-02-03T21:54:27.161Z,10.20
2023-02-03T21:56:55.497Z,10.20
2023-02-03T21:59:29.673Z,10.20
2023-02-03T22:01:58.685Z,10.20
2023-02-03T22:04:30.637Z,10.30
2023-02-03T22:06:58.130Z,10.20
2023-02-03T22:09:27.277Z,10.20
2023-02-03T22:11:54.564Z,10.20
2023-02-03T22:14:22.367Z,10.20
2023-02-03T22:16:50.171Z,10.20
2023-02-03T22:19:18.038Z,10.30
2023-02-03T22:21:47.737Z,10.20
2023-02-03T22:24:15.111Z,10.30
2023-02-03T22:26:45.379Z,10.30
2023-02-03T22:29:12.695Z,10.30
2023-02-03T22:31:42.591Z,10.20
2023-02-03T22:34:10.195Z,10.20
2023-02-03T22:36:37.789Z,10.20
2023-02-03T22:39:05.216Z,10.20
2023-02-03T22:41:32.621Z,10.20
2023-02-03T22:44:00.699Z,10.10
2023-02-03T22:46:31.956Z,10.10
2023-02-03T22:49:02.445Z,10.20
2023-02-03T22:51:29.777Z,10.20
2023-02-03T22:53:57.286Z,10.20
2023-02-03T22:56:25.093Z,10.10
2023-02-03T22:58:52.755Z,10.10
2023-02-03T23:01:20.050Z,10.20
2023-02-03T23:03:47.400Z,10.20
2023-02-03T23:06:15.087Z,10.20
2023-02-03T23:08:42.527Z,10.20
2023-02-03T23:11:09.872Z,10.20
2023-02-03T23:13:39.364Z,10.20
2023-02-03T23:16:06.913Z,10.30
2023-02-03T23:18:34.168Z,10.20
2023-02-03T23:21:01.618Z,10.30
2023-02-03T23:23:28.851Z,10.20
2023-02-03T23:25:56.193Z,10.20
2023-02-03T23:28:23.978Z,10.20
2023-02-03T23:30:51.354Z,10.20
2023-02-03T23:33:18.759Z,10.20
2023-02-03T23:35:46.106Z,10.20
2023-02-03T23:38:17.366Z,10.20
2023-02-03T23:40:45.114Z,10.30
2023-02-03T23:43:12.610Z,10.20
2023-02-03T23:45:40.505Z,10.20
2023-02-03T23:48:08.350Z,10.10
2023-02-03T23:50:35.624Z,10.10
2023-02-03T23:53:02.868Z,10.10
2023-02-03T23:55:31.270Z,10.20
2023-02-03T23:57:58.615Z,10.20
